PGT1807 UBBB-LTAI
Flight info
| Callsign | PGT1807 |
|---|---|
| Flight time | 1h 14m |
| Altitude | 36000 |
| Route | AGDAM M747 ADGEN DCT EDATA N161 ALVAR DCT DAMAT A4 ORHAN L615 OTSOV DCT ZACUF T54 OZCIM UM856 TELVO T62 VAPEK |
| Aircraft | A320/M-SDE3FGHIRWY/LB1 |
Departure
| Time | 2026-05-06 21:59 |
|---|---|
| Airport | Heydar Aliyev International Airport (UBBB) |
Arrival
| Time | 2026-05-06 23:14 |
|---|---|
| Airport | Antalya International Airport (LTAI) |
| Time | Latitude | Longitude | Altitude | Speed | Heading |
|---|---|---|---|---|---|
| 2026-05-06 21:11 | 40.46558 | 50.05106 | 15 ft | 0 kts | 65° |
| 2026-05-06 21:19 | 40.46558 | 50.05105 | 15 ft | 0 kts | 65° |
| 2026-05-06 21:45 | 40.46549 | 50.05079 | 15 ft | 4 kts | 65° |
| 2026-05-06 21:46 | 40.46538 | 50.05047 | 15 ft | 4 kts | 66° |
| 2026-05-06 21:46 | 40.46527 | 50.05014 | 17 ft | 4 kts | 74° |
| 2026-05-06 21:46 | 40.46524 | 50.04981 | 15 ft | 4 kts | 108° |
| 2026-05-06 21:46 | 40.46533 | 50.04955 | 17 ft | 4 kts | 118° |
| 2026-05-06 21:47 | 40.46545 | 50.04923 | 17 ft | 4 kts | 111° |
| 2026-05-06 21:47 | 40.46551 | 50.04894 | 15 ft | 2 kts | 92° |
| 2026-05-06 21:47 | 40.46552 | 50.04861 | 15 ft | 4 kts | 90° |
| 2026-05-06 21:47 | 40.46552 | 50.04825 | 15 ft | 4 kts | 88° |
| 2026-05-06 21:48 | 40.46551 | 50.04790 | 15 ft | 4 kts | 88° |
| 2026-05-06 21:48 | 40.46550 | 50.04781 | 15 ft | 1 kts | 88° |
| 2026-05-06 21:50 | 40.46551 | 50.04791 | 15 ft | 3 kts | 88° |
| 2026-05-06 21:50 | 40.46551 | 50.04817 | 15 ft | 2 kts | 88° |
| 2026-05-06 21:50 | 40.46552 | 50.04859 | 15 ft | 6 kts | 88° |
| 2026-05-06 21:51 | 40.46576 | 50.04917 | 16 ft | 9 kts | 40° |
| 2026-05-06 21:51 | 40.46626 | 50.04955 | 15 ft | 8 kts | 27° |
| 2026-05-06 21:51 | 40.46686 | 50.04994 | 15 ft | 11 kts | 25° |
| 2026-05-06 21:51 | 40.46753 | 50.05030 | 15 ft | 10 kts | 20° |
| 2026-05-06 21:52 | 40.46814 | 50.05047 | 15 ft | 8 kts | 1° |
| 2026-05-06 21:52 | 40.46871 | 50.05047 | 15 ft | 8 kts | 5° |
| 2026-05-06 21:52 | 40.46916 | 50.05089 | 16 ft | 9 kts | 63° |
| 2026-05-06 21:52 | 40.46923 | 50.05179 | 15 ft | 10 kts | 88° |
| 2026-05-06 21:53 | 40.46926 | 50.05277 | 15 ft | 11 kts | 88° |
| 2026-05-06 21:53 | 40.46928 | 50.05376 | 15 ft | 13 kts | 88° |
| 2026-05-06 21:53 | 40.46932 | 50.05499 | 15 ft | 13 kts | 88° |
| 2026-05-06 21:53 | 40.46935 | 50.05617 | 15 ft | 12 kts | 88° |
| 2026-05-06 21:54 | 40.46937 | 50.05724 | 15 ft | 11 kts | 88° |
| 2026-05-06 21:54 | 40.46940 | 50.05817 | 15 ft | 9 kts | 88° |
| 2026-05-06 21:54 | 40.46942 | 50.05902 | 15 ft | 9 kts | 88° |
| 2026-05-06 21:54 | 40.46944 | 50.05996 | 15 ft | 12 kts | 88° |
| 2026-05-06 21:55 | 40.46977 | 50.06078 | 14 ft | 10 kts | 30° |
| 2026-05-06 21:55 | 40.47039 | 50.06089 | 14 ft | 8 kts | 359° |
| 2026-05-06 21:55 | 40.47099 | 50.06088 | 14 ft | 9 kts | 359° |
| 2026-05-06 21:55 | 40.47189 | 50.06087 | 14 ft | 17 kts | 359° |
| 2026-05-06 21:56 | 40.47338 | 50.06085 | 14 ft | 26 kts | 359° |
| 2026-05-06 21:56 | 40.47531 | 50.06082 | 16 ft | 28 kts | 359° |
| 2026-05-06 21:56 | 40.47729 | 50.06079 | 14 ft | 29 kts | 359° |
| 2026-05-06 21:56 | 40.47936 | 50.06076 | 14 ft | 29 kts | 359° |
| 2026-05-06 21:57 | 40.48138 | 50.06073 | 14 ft | 28 kts | 359° |
| 2026-05-06 21:57 | 40.48324 | 50.06071 | 14 ft | 24 kts | 359° |
| 2026-05-06 21:57 | 40.48454 | 50.06071 | 14 ft | 14 kts | 7° |
| 2026-05-06 21:57 | 40.48501 | 50.06161 | 13 ft | 13 kts | 89° |
| 2026-05-06 21:58 | 40.48512 | 50.06259 | 13 ft | 9 kts | 58° |
| 2026-05-06 21:58 | 40.48495 | 50.06283 | 12 ft | 3 kts | 178° |
| 2026-05-06 21:58 | 40.48422 | 50.06283 | 11 ft | 32 kts | 180° |
| 2026-05-06 21:58 | 40.47944 | 50.06289 | 13 ft | 101 kts | 179° |
| 2026-05-06 21:59 | 40.47051 | 50.06302 | 12 ft | 153 kts | 179° |
| 2026-05-06 21:59 | 40.45948 | 50.06317 | 476 ft | 160 kts | 179° |
| 2026-05-06 21:59 | 40.44819 | 50.06334 | 1137 ft | 164 kts | 180° |
| 2026-05-06 21:59 | 40.43662 | 50.06345 | 1782 ft | 169 kts | 181° |
| 2026-05-06 22:00 | 40.42853 | 50.06350 | 2028 ft | 182 kts | 181° |
| 2026-05-06 22:00 | 40.41039 | 50.06379 | 2512 ft | 208 kts | 181° |
| 2026-05-06 22:00 | 40.40048 | 50.06394 | 2724 ft | 223 kts | 181° |
| 2026-05-06 22:00 | 40.38398 | 50.06416 | 3077 ft | 249 kts | 181° |
| 2026-05-06 22:01 | 40.36637 | 50.06044 | 3593 ft | 264 kts | 203° |
| 2026-05-06 22:01 | 40.34985 | 50.04949 | 4443 ft | 268 kts | 214° |
| 2026-05-06 22:01 | 40.33416 | 50.03595 | 5307 ft | 272 kts | 218° |
| 2026-05-06 22:01 | 40.31855 | 50.02160 | 6196 ft | 275 kts | 218° |
| 2026-05-06 22:02 | 40.30313 | 50.00662 | 7062 ft | 276 kts | 227° |
| 2026-05-06 22:02 | 40.29136 | 49.98707 | 7955 ft | 272 kts | 243° |
| 2026-05-06 22:02 | 40.28446 | 49.96421 | 8874 ft | 270 kts | 258° |
| 2026-05-06 22:02 | 40.28260 | 49.94009 | 9772 ft | 270 kts | 268° |
| 2026-05-06 22:03 | 40.28205 | 49.91526 | 10444 ft | 280 kts | 267° |
| 2026-05-06 22:03 | 40.28145 | 49.88874 | 10695 ft | 303 kts | 267° |
| 2026-05-06 22:03 | 40.28079 | 49.86006 | 10888 ft | 327 kts | 267° |
| 2026-05-06 22:03 | 40.28008 | 49.82949 | 11204 ft | 342 kts | 267° |
| 2026-05-06 22:04 | 40.27934 | 49.79807 | 11839 ft | 348 kts | 266° |
| 2026-05-06 22:04 | 40.27858 | 49.76624 | 12559 ft | 351 kts | 266° |
| 2026-05-06 22:04 | 40.27782 | 49.73413 | 13276 ft | 354 kts | 266° |
| 2026-05-06 22:04 | 40.27705 | 49.70174 | 13969 ft | 357 kts | 265° |
| 2026-05-06 22:05 | 40.27624 | 49.66910 | 14570 ft | 361 kts | 266° |
| 2026-05-06 22:05 | 40.27542 | 49.63608 | 15152 ft | 365 kts | 266° |
| 2026-05-06 22:05 | 40.27458 | 49.60276 | 15760 ft | 367 kts | 265° |
| 2026-05-06 22:05 | 40.27370 | 49.56914 | 16369 ft | 370 kts | 265° |
| 2026-05-06 22:06 | 40.27282 | 49.53538 | 16958 ft | 372 kts | 265° |
| 2026-05-06 22:06 | 40.27191 | 49.50143 | 17531 ft | 375 kts | 265° |
| 2026-05-06 22:06 | 40.27101 | 49.46757 | 18080 ft | 378 kts | 265° |
| 2026-05-06 22:06 | 40.27007 | 49.43306 | 18603 ft | 381 kts | 265° |
| 2026-05-06 22:07 | 40.26950 | 49.39833 | 19090 ft | 384 kts | 269° |
| 2026-05-06 22:07 | 40.27087 | 49.36322 | 19573 ft | 387 kts | 270° |
| 2026-05-06 22:07 | 40.27273 | 49.32788 | 20052 ft | 390 kts | 270° |
| 2026-05-06 22:07 | 40.27485 | 49.29238 | 20514 ft | 392 kts | 270° |
| 2026-05-06 22:08 | 40.27707 | 49.25668 | 20978 ft | 395 kts | 270° |
| 2026-05-06 22:08 | 40.27926 | 49.22114 | 21432 ft | 397 kts | 270° |
| 2026-05-06 22:08 | 40.28131 | 49.18459 | 21903 ft | 399 kts | 270° |
| 2026-05-06 22:08 | 40.28311 | 49.14816 | 22344 ft | 401 kts | 269° |
| 2026-05-06 22:09 | 40.28474 | 49.11159 | 22785 ft | 404 kts | 269° |
| 2026-05-06 22:09 | 40.28630 | 49.07481 | 23215 ft | 406 kts | 269° |
| 2026-05-06 22:09 | 40.28785 | 49.03777 | 23631 ft | 408 kts | 269° |
| 2026-05-06 22:09 | 40.28947 | 49.00052 | 23966 ft | 411 kts | 269° |
| 2026-05-06 22:10 | 40.29114 | 48.96309 | 24317 ft | 413 kts | 269° |
| 2026-05-06 22:10 | 40.29281 | 48.92552 | 24695 ft | 414 kts | 269° |
| 2026-05-06 22:10 | 40.29447 | 48.88785 | 25087 ft | 415 kts | 269° |
| 2026-05-06 22:10 | 40.29614 | 48.85010 | 25460 ft | 415 kts | 268° |
| 2026-05-06 22:11 | 40.29779 | 48.81231 | 25818 ft | 416 kts | 268° |
| 2026-05-06 22:11 | 40.29945 | 48.77435 | 26171 ft | 417 kts | 268° |
| 2026-05-06 22:11 | 40.30108 | 48.73637 | 26522 ft | 418 kts | 268° |
| 2026-05-06 22:11 | 40.30272 | 48.69828 | 26850 ft | 420 kts | 268° |
| 2026-05-06 22:12 | 40.30435 | 48.66050 | 27173 ft | 421 kts | 268° |
| 2026-05-06 22:12 | 40.30598 | 48.62168 | 27494 ft | 422 kts | 268° |
| 2026-05-06 22:12 | 40.30753 | 48.58379 | 27816 ft | 422 kts | 267° |
| 2026-05-06 22:12 | 40.30909 | 48.54540 | 28281 ft | 420 kts | 267° |
| 2026-05-06 22:13 | 40.31066 | 48.50725 | 28765 ft | 417 kts | 267° |
| 2026-05-06 22:13 | 40.31222 | 48.46942 | 29254 ft | 414 kts | 267° |
| 2026-05-06 22:13 | 40.31374 | 48.43172 | 29743 ft | 412 kts | 266° |
| 2026-05-06 22:13 | 40.31522 | 48.39439 | 30220 ft | 409 kts | 266° |
| 2026-05-06 22:14 | 40.31668 | 48.35723 | 30607 ft | 407 kts | 266° |
| 2026-05-06 22:14 | 40.31811 | 48.32075 | 30957 ft | 406 kts | 266° |
| 2026-05-06 22:14 | 40.31955 | 48.28380 | 31306 ft | 405 kts | 266° |
| 2026-05-06 22:14 | 40.32095 | 48.24692 | 31616 ft | 405 kts | 266° |
| 2026-05-06 22:15 | 40.32230 | 48.21004 | 31931 ft | 405 kts | 266° |
| 2026-05-06 22:15 | 40.32366 | 48.17312 | 32260 ft | 405 kts | 266° |
| 2026-05-06 22:15 | 40.32504 | 48.13637 | 32596 ft | 404 kts | 266° |
| 2026-05-06 22:15 | 40.32644 | 48.09961 | 32936 ft | 404 kts | 267° |
| 2026-05-06 22:16 | 40.32780 | 48.06282 | 33259 ft | 403 kts | 267° |
| 2026-05-06 22:16 | 40.32916 | 48.02609 | 33582 ft | 403 kts | 267° |
| 2026-05-06 22:16 | 40.33050 | 47.98943 | 33906 ft | 402 kts | 267° |
| 2026-05-06 22:16 | 40.33182 | 47.95282 | 34210 ft | 402 kts | 267° |
| 2026-05-06 22:17 | 40.33311 | 47.91674 | 34469 ft | 402 kts | 267° |
| 2026-05-06 22:17 | 40.33442 | 47.88020 | 34725 ft | 402 kts | 267° |
| 2026-05-06 22:17 | 40.33569 | 47.84363 | 34984 ft | 402 kts | 267° |
| 2026-05-06 22:17 | 40.33693 | 47.80693 | 35183 ft | 403 kts | 267° |
| 2026-05-06 22:18 | 40.33816 | 47.77022 | 35409 ft | 403 kts | 267° |
| 2026-05-06 22:18 | 40.33940 | 47.73346 | 35628 ft | 404 kts | 267° |
| 2026-05-06 22:18 | 40.34063 | 47.69671 | 35851 ft | 404 kts | 267° |
| 2026-05-06 22:18 | 40.34186 | 47.65996 | 36038 ft | 404 kts | 267° |
| 2026-05-06 22:19 | 40.34431 | 47.58581 | 36101 ft | 409 kts | 267° |
| 2026-05-06 22:19 | 40.34675 | 47.51114 | 36100 ft | 410 kts | 267° |
| 2026-05-06 22:20 | 40.34913 | 47.43650 | 36100 ft | 410 kts | 267° |
| 2026-05-06 22:20 | 40.35149 | 47.36163 | 36097 ft | 411 kts | 267° |
| 2026-05-06 22:21 | 40.35375 | 47.28716 | 36097 ft | 412 kts | 267° |
| 2026-05-06 22:21 | 40.35590 | 47.21215 | 36095 ft | 412 kts | 267° |
| 2026-05-06 22:22 | 40.35696 | 47.17487 | 35680 ft | 412 kts | 270° |
| 2026-05-06 22:22 | 40.35904 | 47.10262 | 36016 ft | 414 kts | 267° |
| 2026-05-06 22:22 | 40.36710 | 46.80197 | 36139 ft | 413 kts | 267° |
| 2026-05-06 22:23 | 40.37452 | 46.50127 | 36094 ft | 411 kts | 267° |
| 2026-05-06 22:23 | 40.38103 | 46.19998 | 36058 ft | 414 kts | 267° |
| 2026-05-06 22:24 | 40.38683 | 45.89884 | 36118 ft | 421 kts | 267° |
| 2026-05-06 22:24 | 40.38476 | 45.59433 | 36101 ft | 411 kts | 256° |
| 2026-05-06 22:25 | 40.34463 | 45.29902 | 36060 ft | 411 kts | 257° |
| 2026-05-06 22:25 | 40.30370 | 45.00361 | 36061 ft | 411 kts | 256° |
| 2026-05-06 22:26 | 40.26219 | 44.70911 | 36043 ft | 414 kts | 256° |
| 2026-05-06 22:26 | 40.22074 | 44.41211 | 36046 ft | 415 kts | 257° |
| 2026-05-06 22:27 | 40.17935 | 44.11375 | 36046 ft | 416 kts | 257° |
| 2026-05-06 22:27 | 40.13750 | 43.81739 | 36069 ft | 416 kts | 257° |
| 2026-05-06 22:28 | 40.10803 | 43.51661 | 36097 ft | 420 kts | 263° |
| 2026-05-06 22:28 | 40.09106 | 43.21252 | 36125 ft | 420 kts | 263° |
| 2026-05-06 22:29 | 40.07324 | 42.90764 | 36129 ft | 421 kts | 263° |
| 2026-05-06 22:29 | 40.05502 | 42.60254 | 36130 ft | 421 kts | 263° |
| 2026-05-06 22:30 | 40.02701 | 42.30122 | 36130 ft | 419 kts | 253° |
| 2026-05-06 22:30 | 39.96726 | 42.00639 | 36113 ft | 421 kts | 253° |
| 2026-05-06 22:31 | 39.90674 | 41.71084 | 36111 ft | 422 kts | 253° |
| 2026-05-06 22:31 | 39.84633 | 41.41462 | 36115 ft | 423 kts | 253° |
| 2026-05-06 22:32 | 39.78530 | 41.11914 | 36128 ft | 422 kts | 253° |
| 2026-05-06 22:32 | 39.72392 | 40.82682 | 36143 ft | 421 kts | 253° |
| 2026-05-06 22:33 | 39.66140 | 40.53292 | 36143 ft | 423 kts | 253° |
| 2026-05-06 22:33 | 39.59796 | 40.23842 | 36144 ft | 423 kts | 253° |
| 2026-05-06 22:34 | 39.53396 | 39.94619 | 36134 ft | 423 kts | 253° |
| 2026-05-06 22:34 | 39.46896 | 39.65228 | 36147 ft | 424 kts | 253° |
| 2026-05-06 22:35 | 39.40295 | 39.35863 | 36139 ft | 425 kts | 253° |
| 2026-05-06 22:35 | 39.33660 | 39.06644 | 36135 ft | 425 kts | 253° |
| 2026-05-06 22:36 | 39.26919 | 38.77357 | 36135 ft | 426 kts | 253° |
| 2026-05-06 22:36 | 39.20086 | 38.48024 | 36137 ft | 427 kts | 253° |
| 2026-05-06 22:37 | 39.13149 | 38.18729 | 36154 ft | 427 kts | 253° |
| 2026-05-06 22:37 | 39.06151 | 37.89467 | 36140 ft | 428 kts | 253° |
| 2026-05-06 22:38 | 38.99097 | 37.60285 | 36156 ft | 427 kts | 253° |
| 2026-05-06 22:38 | 38.91963 | 37.31207 | 36144 ft | 427 kts | 253° |
| 2026-05-06 22:39 | 38.84757 | 37.02140 | 36161 ft | 426 kts | 253° |
| 2026-05-06 22:39 | 38.77496 | 36.73235 | 36153 ft | 426 kts | 253° |
| 2026-05-06 22:40 | 38.70165 | 36.44381 | 36160 ft | 425 kts | 253° |
| 2026-05-06 22:40 | 38.62836 | 36.15826 | 36159 ft | 425 kts | 254° |
| 2026-05-06 22:41 | 38.51598 | 35.72699 | 36162 ft | 426 kts | 253° |
| 2026-05-06 22:42 | 38.44012 | 35.44033 | 36145 ft | 427 kts | 253° |
| 2026-05-06 22:42 | 38.36321 | 35.15323 | 36143 ft | 428 kts | 253° |
| 2026-05-06 22:43 | 38.28532 | 34.86560 | 36135 ft | 430 kts | 253° |
| 2026-05-06 22:43 | 38.20701 | 34.57902 | 36142 ft | 432 kts | 253° |
| 2026-05-06 22:44 | 38.12707 | 34.29011 | 36153 ft | 434 kts | 253° |
| 2026-05-06 22:44 | 38.04646 | 34.00121 | 36141 ft | 434 kts | 253° |
| 2026-05-06 22:45 | 37.96470 | 33.71237 | 36143 ft | 434 kts | 253° |
| 2026-05-06 22:45 | 37.88284 | 33.42570 | 36144 ft | 434 kts | 253° |
| 2026-05-06 22:46 | 37.80023 | 33.14009 | 36149 ft | 433 kts | 253° |
| 2026-05-06 22:46 | 37.77706 | 33.06059 | 36147 ft | 433 kts | 254° |
| 2026-05-06 22:47 | 37.75625 | 32.98902 | 36150 ft | 434 kts | 254° |
| 2026-05-06 22:47 | 37.73888 | 32.92951 | 36153 ft | 434 kts | 253° |
| 2026-05-06 22:48 | 37.71791 | 32.85798 | 36155 ft | 434 kts | 253° |
| 2026-05-06 22:48 | 37.69593 | 32.78681 | 36143 ft | 435 kts | 252° |
| 2026-05-06 22:49 | 37.67308 | 32.71609 | 36153 ft | 435 kts | 252° |
| 2026-05-06 22:49 | 37.65001 | 32.64536 | 36160 ft | 435 kts | 252° |
| 2026-05-06 22:50 | 37.62738 | 32.57464 | 36153 ft | 435 kts | 253° |
| 2026-05-06 22:50 | 37.60487 | 32.50381 | 36141 ft | 435 kts | 253° |
| 2026-05-06 22:51 | 37.58233 | 32.43352 | 36160 ft | 435 kts | 252° |
| 2026-05-06 22:51 | 37.55943 | 32.36290 | 36167 ft | 435 kts | 252° |
| 2026-05-06 22:52 | 37.53665 | 32.29228 | 36155 ft | 435 kts | 253° |
| 2026-05-06 22:52 | 37.52520 | 32.25680 | 35913 ft | 436 kts | 253° |
| 2026-05-06 22:52 | 37.51372 | 32.22138 | 35672 ft | 436 kts | 253° |
| 2026-05-06 22:52 | 37.50220 | 32.18596 | 35432 ft | 437 kts | 253° |
| 2026-05-06 22:53 | 37.49066 | 32.15049 | 35170 ft | 436 kts | 253° |
| 2026-05-06 22:53 | 37.47914 | 32.11515 | 34928 ft | 436 kts | 253° |
| 2026-05-06 22:53 | 37.46779 | 32.08026 | 34696 ft | 437 kts | 253° |
| 2026-05-06 22:53 | 37.45627 | 32.04487 | 34441 ft | 438 kts | 253° |
| 2026-05-06 22:54 | 37.44471 | 32.00935 | 34203 ft | 439 kts | 253° |
| 2026-05-06 22:54 | 37.43294 | 31.97335 | 33942 ft | 440 kts | 253° |
| 2026-05-06 22:54 | 37.42127 | 31.93769 | 33308 ft | 442 kts | 253° |
| 2026-05-06 22:54 | 37.40953 | 31.90184 | 32329 ft | 444 kts | 253° |
| 2026-05-06 22:55 | 37.39784 | 31.86619 | 31343 ft | 448 kts | 253° |
| 2026-05-06 22:55 | 37.38593 | 31.82989 | 30363 ft | 450 kts | 253° |
| 2026-05-06 22:55 | 37.37393 | 31.79343 | 29188 ft | 452 kts | 253° |
| 2026-05-06 22:55 | 37.36187 | 31.75688 | 28037 ft | 454 kts | 253° |
| 2026-05-06 22:56 | 37.34971 | 31.72010 | 26878 ft | 456 kts | 252° |
| 2026-05-06 22:56 | 37.33748 | 31.68312 | 25665 ft | 460 kts | 252° |
| 2026-05-06 22:56 | 37.32516 | 31.64596 | 24494 ft | 462 kts | 252° |
| 2026-05-06 22:56 | 37.31274 | 31.60857 | 23291 ft | 464 kts | 251° |
| 2026-05-06 22:57 | 37.30025 | 31.57104 | 22188 ft | 463 kts | 251° |
| 2026-05-06 22:57 | 37.28792 | 31.53407 | 21274 ft | 457 kts | 251° |
| 2026-05-06 22:57 | 37.27575 | 31.49762 | 20552 ft | 448 kts | 251° |
| 2026-05-06 22:57 | 37.26385 | 31.46194 | 19925 ft | 439 kts | 251° |
| 2026-05-06 22:58 | 37.25213 | 31.42675 | 19228 ft | 433 kts | 251° |
| 2026-05-06 22:58 | 37.24057 | 31.39202 | 18501 ft | 429 kts | 251° |
| 2026-05-06 22:58 | 37.22912 | 31.35765 | 17692 ft | 425 kts | 251° |
| 2026-05-06 22:58 | 37.21776 | 31.32357 | 16915 ft | 421 kts | 250° |
| 2026-05-06 22:59 | 37.20648 | 31.28981 | 16168 ft | 417 kts | 250° |
| 2026-05-06 22:59 | 37.19529 | 31.25643 | 15459 ft | 413 kts | 250° |
| 2026-05-06 22:59 | 37.18428 | 31.22374 | 14746 ft | 410 kts | 250° |
| 2026-05-06 22:59 | 37.17322 | 31.19094 | 14029 ft | 407 kts | 249° |
| 2026-05-06 23:00 | 37.16222 | 31.15832 | 13254 ft | 404 kts | 249° |
| 2026-05-06 23:00 | 37.14973 | 31.12699 | 12591 ft | 400 kts | 240° |
| 2026-05-06 23:00 | 37.13290 | 31.09971 | 12082 ft | 393 kts | 228° |
| 2026-05-06 23:00 | 37.11240 | 31.07747 | 11581 ft | 388 kts | 217° |
| 2026-05-06 23:01 | 37.08932 | 31.06059 | 11231 ft | 377 kts | 210° |
| 2026-05-06 23:01 | 37.06668 | 31.04552 | 11105 ft | 360 kts | 210° |
| 2026-05-06 23:01 | 37.04508 | 31.03104 | 10980 ft | 345 kts | 210° |
| 2026-05-06 23:01 | 37.02438 | 31.01711 | 10858 ft | 331 kts | 210° |
| 2026-05-06 23:02 | 37.00448 | 31.00373 | 10717 ft | 319 kts | 210° |
| 2026-05-06 23:02 | 36.98529 | 30.99083 | 10607 ft | 308 kts | 210° |
| 2026-05-06 23:02 | 36.96668 | 30.97838 | 10402 ft | 300 kts | 210° |
| 2026-05-06 23:02 | 36.94835 | 30.96614 | 10092 ft | 298 kts | 210° |
| 2026-05-06 23:03 | 36.93014 | 30.95391 | 9704 ft | 296 kts | 210° |
| 2026-05-06 23:03 | 36.91184 | 30.94213 | 9294 ft | 296 kts | 204° |
| 2026-05-06 23:03 | 36.89208 | 30.93486 | 8925 ft | 296 kts | 190° |
| 2026-05-06 23:03 | 36.87161 | 30.93249 | 8544 ft | 295 kts | 185° |
| 2026-05-06 23:04 | 36.85122 | 30.93057 | 8167 ft | 293 kts | 185° |
| 2026-05-06 23:04 | 36.83101 | 30.92860 | 7791 ft | 291 kts | 185° |
| 2026-05-06 23:04 | 36.81091 | 30.92660 | 7416 ft | 289 kts | 185° |
| 2026-05-06 23:04 | 36.79094 | 30.92462 | 7032 ft | 287 kts | 185° |
| 2026-05-06 23:05 | 36.77113 | 30.92268 | 6662 ft | 285 kts | 185° |
| 2026-05-06 23:05 | 36.75145 | 30.92077 | 6267 ft | 283 kts | 185° |
| 2026-05-06 23:05 | 36.73187 | 30.91886 | 5880 ft | 281 kts | 185° |
| 2026-05-06 23:05 | 36.71241 | 30.91696 | 5499 ft | 280 kts | 185° |
| 2026-05-06 23:06 | 36.69311 | 30.91506 | 5218 ft | 277 kts | 185° |
| 2026-05-06 23:06 | 36.67391 | 30.91319 | 4965 ft | 276 kts | 185° |
| 2026-05-06 23:06 | 36.65528 | 30.90848 | 4705 ft | 273 kts | 204° |
| 2026-05-06 23:06 | 36.63959 | 30.89578 | 4451 ft | 269 kts | 226° |
| 2026-05-06 23:07 | 36.62895 | 30.87695 | 4199 ft | 266 kts | 246° |
| 2026-05-06 23:07 | 36.62225 | 30.85547 | 3944 ft | 264 kts | 260° |
| 2026-05-06 23:07 | 36.62399 | 30.83330 | 3695 ft | 260 kts | 295° |
| 2026-05-06 23:07 | 36.63572 | 30.81682 | 3449 ft | 254 kts | 328° |
| 2026-05-06 23:08 | 36.65076 | 30.80589 | 3198 ft | 247 kts | 330° |
| 2026-05-06 23:08 | 36.66544 | 30.79556 | 3032 ft | 237 kts | 330° |
| 2026-05-06 23:08 | 36.67941 | 30.78576 | 2988 ft | 223 kts | 330° |
| 2026-05-06 23:08 | 36.69233 | 30.77669 | 2998 ft | 209 kts | 330° |
| 2026-05-06 23:09 | 36.70519 | 30.76904 | 2999 ft | 198 kts | 345° |
| 2026-05-06 23:09 | 36.71854 | 30.76770 | 3006 ft | 195 kts | 5° |
| 2026-05-06 23:09 | 36.73196 | 30.76952 | 3006 ft | 194 kts | 6° |
| 2026-05-06 23:09 | 36.74518 | 30.77142 | 2923 ft | 187 kts | 6° |
| 2026-05-06 23:10 | 36.75786 | 30.77318 | 2708 ft | 181 kts | 6° |
| 2026-05-06 23:10 | 36.77022 | 30.77488 | 2473 ft | 177 kts | 6° |
| 2026-05-06 23:10 | 36.78233 | 30.77653 | 2241 ft | 172 kts | 6° |
| 2026-05-06 23:10 | 36.79386 | 30.77811 | 2020 ft | 162 kts | 6° |
| 2026-05-06 23:11 | 36.80471 | 30.77959 | 1817 ft | 152 kts | 6° |
| 2026-05-06 23:11 | 36.81484 | 30.78097 | 1631 ft | 142 kts | 6° |
| 2026-05-06 23:11 | 36.82452 | 30.78229 | 1432 ft | 138 kts | 6° |
| 2026-05-06 23:11 | 36.83402 | 30.78357 | 1247 ft | 136 kts | 6° |
| 2026-05-06 23:12 | 36.84340 | 30.78489 | 1065 ft | 135 kts | 6° |
| 2026-05-06 23:12 | 36.85264 | 30.78615 | 861 ft | 134 kts | 6° |
| 2026-05-06 23:12 | 36.86187 | 30.78744 | 684 ft | 132 kts | 5° |
| 2026-05-06 23:12 | 36.87101 | 30.78868 | 505 ft | 132 kts | 5° |
| 2026-05-06 23:13 | 36.88007 | 30.78992 | 333 ft | 131 kts | 5° |
| 2026-05-06 23:13 | 36.88911 | 30.79119 | 194 ft | 126 kts | 5° |
| 2026-05-06 23:13 | 36.89636 | 30.79217 | 196 ft | 80 kts | 6° |
| 2026-05-06 23:13 | 36.90058 | 30.79276 | 190 ft | 50 kts | 6° |
| 2026-05-06 23:14 | 36.90297 | 30.79327 | 189 ft | 28 kts | 26° |
| 2026-05-06 23:14 | 36.90395 | 30.79413 | 196 ft | 13 kts | 36° |
| 2026-05-06 23:14 | 36.90465 | 30.79479 | 198 ft | 13 kts | 45° |
| 2026-05-06 23:14 | 36.90441 | 30.79545 | 196 ft | 10 kts | 179° |
| 2026-05-06 23:15 | 36.90377 | 30.79537 | 191 ft | 9 kts | 186° |
| 2026-05-06 23:15 | 36.90284 | 30.79524 | 202 ft | 19 kts | 186° |
| 2026-05-06 23:15 | 36.90146 | 30.79505 | 204 ft | 21 kts | 187° |
| 2026-05-06 23:15 | 36.90003 | 30.79485 | 199 ft | 22 kts | 186° |
| 2026-05-06 23:16 | 36.89847 | 30.79464 | 196 ft | 24 kts | 186° |
| 2026-05-06 23:16 | 36.89678 | 30.79441 | 206 ft | 23 kts | 186° |
| 2026-05-06 23:16 | 36.89521 | 30.79420 | 203 ft | 23 kts | 186° |
| 2026-05-06 23:16 | 36.89372 | 30.79399 | 192 ft | 19 kts | 186° |
| 2026-05-06 23:17 | 36.89307 | 30.79434 | 206 ft | 10 kts | 107° |
| 2026-05-06 23:17 | 36.89299 | 30.79507 | 198 ft | 7 kts | 97° |
| 2026-05-06 23:17 | 36.89294 | 30.79567 | 192 ft | 7 kts | 96° |
| 2026-05-06 23:17 | 36.89291 | 30.79623 | 203 ft | 6 kts | 83° |
| 2026-05-06 23:18 | 36.89322 | 30.79648 | 192 ft | 6 kts | 6° |
| 2026-05-06 23:18 | 36.89359 | 30.79653 | 205 ft | 2 kts | 6° |
| 2026-05-06 23:18 | 36.89364 | 30.79654 | 202 ft | 0 kts | 6° |